sensor_id;sensor_type;location;lat;lon;timestamp;pressure;altitude;pressure_sealevel;temperature;humidity
5455;BME280;2750;49.050;9.250;2023-05-21T00:01:14;98387.78;;;19.80;85.44
5455;BME280;2750;49.050;9.250;2023-05-21T00:06:16;98376.72;;;19.77;85.24
5455;BME280;2750;49.050;9.250;2023-05-21T00:11:20;98386.38;;;19.67;85.54
5455;BME280;2750;49.050;9.250;2023-05-21T00:16:21;98385.69;;;19.74;85.77
5455;BME280;2750;49.050;9.250;2023-05-21T00:21:24;98376.41;;;19.80;85.31
5455;BME280;2750;49.050;9.250;2023-05-21T00:26:26;98369.44;;;20.17;83.83
5455;BME280;2750;49.050;9.250;2023-05-21T00:31:27;98371.59;;;19.66;85.63
5455;BME280;2750;49.050;9.250;2023-05-21T00:36:30;98362.44;;;19.50;86.28
5455;BME280;2750;49.050;9.250;2023-05-21T00:41:33;98350.63;;;19.35;87.05
5455;BME280;2750;49.050;9.250;2023-05-21T00:46:35;98353.81;;;19.39;86.93
5455;BME280;2750;49.050;9.250;2023-05-21T00:51:38;98339.59;;;19.01;87.88
5455;BME280;2750;49.050;9.250;2023-05-21T00:56:40;98342.22;;;19.01;87.85
5455;BME280;2750;49.050;9.250;2023-05-21T01:01:42;98333.28;;;19.33;86.83
5455;BME280;2750;49.050;9.250;2023-05-21T01:06:45;98341.06;;;19.34;86.97
5455;BME280;2750;49.050;9.250;2023-05-21T01:11:49;98338.19;;;19.47;87.16
5455;BME280;2750;49.050;9.250;2023-05-21T01:16:51;98336.91;;;19.41;86.67
5455;BME280;2750;49.050;9.250;2023-05-21T01:21:59;98326.25;;;19.72;84.94
5455;BME280;2750;49.050;9.250;2023-05-21T01:27:03;98335.78;;;20.01;83.80
5455;BME280;2750;49.050;9.250;2023-05-21T01:32:11;98332.06;;;19.85;84.47
5455;BME280;2750;49.050;9.250;2023-05-21T01:37:20;98331.09;;;19.67;85.37
5455;BME280;2750;49.050;9.250;2023-05-21T01:42:24;98333.72;;;19.67;85.40
5455;BME280;2750;49.050;9.250;2023-05-21T01:47:28;98331.63;;;19.89;84.60
5455;BME280;2750;49.050;9.250;2023-05-21T01:52:31;98328.06;;;19.81;84.57
5455;BME280;2750;49.050;9.250;2023-05-21T01:57:34;98326.81;;;19.75;84.74
5455;BME280;2750;49.050;9.250;2023-05-21T02:02:35;98320.00;;;19.63;84.96
5455;BME280;2750;49.050;9.250;2023-05-21T02:07:36;98319.03;;;19.35;85.56
5455;BME280;2750;49.050;9.250;2023-05-21T02:12:40;98322.66;;;19.53;85.67
5455;BME280;2750;49.050;9.250;2023-05-21T02:17:42;98312.97;;;19.44;85.67
5455;BME280;2750;49.050;9.250;2023-05-21T02:22:46;98318.22;;;19.44;86.39
5455;BME280;2750;49.050;9.250;2023-05-21T02:27:49;98306.59;;;19.56;85.38
5455;BME280;2750;49.050;9.250;2023-05-21T02:32:54;98297.88;;;19.46;85.33
5455;BME280;2750;49.050;9.250;2023-05-21T02:37:57;98313.75;;;19.16;87.22
5455;BME280;2750;49.050;9.250;2023-05-21T02:43:03;98298.78;;;19.17;86.01
5455;BME280;2750;49.050;9.250;2023-05-21T02:48:05;98303.78;;;19.29;86.19
5455;BME280;2750;49.050;9.250;2023-05-21T02:53:06;98309.56;;;19.14;86.78
5455;BME280;2750;49.050;9.250;2023-05-21T02:58:09;98299.06;;;19.23;85.73
5455;BME280;2750;49.050;9.250;2023-05-21T03:03:12;98304.59;;;19.01;86.76
5455;BME280;2750;49.050;9.250;2023-05-21T03:08:14;98306.06;;;18.84;87.64
5455;BME280;2750;49.050;9.250;2023-05-21T03:13:17;98303.16;;;18.87;87.38
5455;BME280;2750;49.050;9.250;2023-05-21T03:18:19;98313.25;;;18.82;87.34
5455;BME280;2750;49.050;9.250;2023-05-21T03:23:20;98309.59;;;18.34;89.68
5455;BME280;2750;49.050;9.250;2023-05-21T03:28:23;98310.28;;;18.56;89.08
5455;BME280;2750;49.050;9.250;2023-05-21T03:33:24;98305.03;;;18.56;88.69
5455;BME280;2750;49.050;9.250;2023-05-21T03:38:26;98322.75;;;18.13;90.61
5455;BME280;2750;49.050;9.250;2023-05-21T03:43:29;98305.66;;;18.19;90.12
5455;BME280;2750;49.050;9.250;2023-05-21T03:48:30;98311.38;;;17.61;92.38
5455;BME280;2750;49.050;9.250;2023-05-21T03:53:32;98305.81;;;17.76;93.02
5455;BME280;2750;49.050;9.250;2023-05-21T03:58:35;98300.91;;;17.50;93.96
5455;BME280;2750;49.050;9.250;2023-05-21T04:03:37;98304.69;;;17.89;92.10
5455;BME280;2750;49.050;9.250;2023-05-21T04:08:39;98315.88;;;18.12;90.70
5455;BME280;2750;49.050;9.250;2023-05-21T04:13:41;98316.00;;;17.90;91.64
5455;BME280;2750;49.050;9.250;2023-05-21T04:18:43;98317.16;;;17.97;91.10
5455;BME280;2750;49.050;9.250;2023-05-21T04:23:44;98321.31;;;17.99;91.76
5455;BME280;2750;49.050;9.250;2023-05-21T04:28:47;98323.16;;;17.88;92.10
5455;BME280;2750;49.050;9.250;2023-05-21T04:33:49;98335.22;;;17.70;92.66
5455;BME280;2750;49.050;9.250;2023-05-21T04:38:51;98332.00;;;17.87;92.44
5455;BME280;2750;49.050;9.250;2023-05-21T04:43:53;98344.16;;;17.67;93.07
5455;BME280;2750;49.050;9.250;2023-05-21T04:48:56;98338.16;;;17.76;93.26
5455;BME280;2750;49.050;9.250;2023-05-21T04:54:02;98338.59;;;18.02;92.18
5455;BME280;2750;49.050;9.250;2023-05-21T04:59:04;98341.59;;;18.18;91.17
5455;BME280;2750;49.050;9.250;2023-05-21T05:04:06;98344.16;;;18.99;87.85
5455;BME280;2750;49.050;9.250;2023-05-21T05:09:07;98335.63;;;19.26;86.50
5455;BME280;2750;49.050;9.250;2023-05-21T05:14:11;98337.91;;;19.69;85.61
5455;BME280;2750;49.050;9.250;2023-05-21T05:19:12;98339.84;;;19.77;84.68
5455;BME280;2750;49.050;9.250;2023-05-21T05:24:14;98338.41;;;20.11;83.62
5455;BME280;2750;49.050;9.250;2023-05-21T05:29:17;98335.97;;;20.74;82.71
5455;BME280;2750;49.050;9.250;2023-05-21T05:34:19;98333.03;;;21.31;81.04
5455;BME280;2750;49.050;9.250;2023-05-21T05:39:20;98322.97;;;21.88;79.21
5455;BME280;2750;49.050;9.250;2023-05-21T05:44:23;98328.97;;;22.42;77.53
5455;BME280;2750;49.050;9.250;2023-05-21T05:49:25;98332.69;;;22.91;76.08
5455;BME280;2750;49.050;9.250;2023-05-21T05:54:26;98337.44;;;23.21;74.88
5455;BME280;2750;49.050;9.250;2023-05-21T05:59:29;98338.19;;;23.88;73.16
5455;BME280;2750;49.050;9.250;2023-05-21T06:04:32;98331.88;;;24.29;71.67
5455;BME280;2750;49.050;9.250;2023-05-21T06:09:34;98322.13;;;24.68;70.32
5455;BME280;2750;49.050;9.250;2023-05-21T06:14:39;98330.94;;;25.08;69.45
5455;BME280;2750;49.050;9.250;2023-05-21T06:19:40;98336.56;;;24.74;69.75
5455;BME280;2750;49.050;9.250;2023-05-21T06:24:42;98327.59;;;24.75;70.50
5455;BME280;2750;49.050;9.250;2023-05-21T06:29:44;98332.69;;;25.23;69.26
5455;BME280;2750;49.050;9.250;2023-05-21T06:34:46;98337.00;;;25.55;67.84
5455;BME280;2750;49.050;9.250;2023-05-21T06:39:47;98331.09;;;26.43;65.69
5455;BME280;2750;49.050;9.250;2023-05-21T06:44:50;98325.59;;;26.88;63.93
5455;BME280;2750;49.050;9.250;2023-05-21T06:49:52;98336.50;;;27.44;63.68
5455;BME280;2750;49.050;9.250;2023-05-21T06:54:53;98338.47;;;27.71;63.06
5455;BME280;2750;49.050;9.250;2023-05-21T06:59:56;98334.44;;;28.59;61.50
5455;BME280;2750;49.050;9.250;2023-05-21T07:04:58;98337.88;;;29.28;59.89
5455;BME280;2750;49.050;9.250;2023-05-21T07:09:59;98340.91;;;29.99;58.65
5455;BME280;2750;49.050;9.250;2023-05-21T07:15:02;98337.41;;;30.05;58.70
5455;BME280;2750;49.050;9.250;2023-05-21T07:20:05;98338.94;;;30.84;56.86
5455;BME280;2750;49.050;9.250;2023-05-21T07:25:07;98336.59;;;31.14;55.40
5455;BME280;2750;49.050;9.250;2023-05-21T07:30:12;98343.91;;;27.84;59.08
5455;BME280;2750;49.050;9.250;2023-05-21T07:35:14;98334.69;;;28.08;58.84
5455;BME280;2750;49.050;9.250;2023-05-21T07:40:15;98328.88;;;29.49;57.14
5455;BME280;2750;49.050;9.250;2023-05-21T07:45:18;98328.75;;;30.16;55.81
5455;BME280;2750;49.050;9.250;2023-05-21T07:50:20;98329.94;;;29.07;56.69
5455;BME280;2750;49.050;9.250;2023-05-21T07:55:21;98326.84;;;29.51;55.68
5455;BME280;2750;49.050;9.250;2023-05-21T08:00:24;98329.03;;;31.36;53.79
5455;BME280;2750;49.050;9.250;2023-05-21T08:05:25;98328.97;;;29.88;55.28
5455;BME280;2750;49.050;9.250;2023-05-21T08:10:27;98314.84;;;32.23;51.98
5455;BME280;2750;49.050;9.250;2023-05-21T08:15:30;98314.34;;;32.08;51.87
5455;BME280;2750;49.050;9.250;2023-05-21T08:20:31;98321.84;;;33.03;51.26
5455;BME280;2750;49.050;9.250;2023-05-21T08:25:33;98320.00;;;33.63;50.01
5455;BME280;2750;49.050;9.250;2023-05-21T08:30:36;98336.16;;;29.87;54.16
5455;BME280;2750;49.050;9.250;2023-05-21T08:35:37;98328.13;;;29.94;55.00
5455;BME280;2750;49.050;9.250;2023-05-21T08:40:39;98319.34;;;30.84;53.74
5455;BME280;2750;49.050;9.250;2023-05-21T08:45:44;98317.91;;;30.88;53.42
5455;BME280;2750;49.050;9.250;2023-05-21T08:50:45;98323.00;;;31.78;52.67
5455;BME280;2750;49.050;9.250;2023-05-21T08:55:50;98321.91;;;32.17;52.32
5455;BME280;2750;49.050;9.250;2023-05-21T09:00:54;98313.38;;;32.82;50.34
5455;BME280;2750;49.050;9.250;2023-05-21T09:05:57;98329.44;;;31.77;52.50
5455;BME280;2750;49.050;9.250;2023-05-21T09:11:00;98325.78;;;31.97;51.90
5455;BME280;2750;49.050;9.250;2023-05-21T09:16:05;98329.25;;;30.83;52.61
5455;BME280;2750;49.050;9.250;2023-05-21T09:21:22;98322.13;;;29.79;54.09
5455;BME280;2750;49.050;9.250;2023-05-21T09:26:24;98327.16;;;30.99;53.55
5455;BME280;2750;49.050;9.250;2023-05-21T09:31:28;98327.22;;;29.41;54.87
5455;BME280;2750;49.050;9.250;2023-05-21T09:36:29;98324.41;;;30.28;53.69
5455;BME280;2750;49.050;9.250;2023-05-21T09:41:31;98323.41;;;29.89;54.54
5455;BME280;2750;49.050;9.250;2023-05-21T09:46:40;98321.50;;;30.36;53.56
5455;BME280;2750;49.050;9.250;2023-05-21T09:51:42;98314.44;;;31.63;52.67
5455;BME280;2750;49.050;9.250;2023-05-21T09:56:44;98320.97;;;31.05;53.20
5455;BME280;2750;49.050;9.250;2023-05-21T10:01:49;98315.47;;;31.31;53.69
5455;BME280;2750;49.050;9.250;2023-05-21T10:06:51;98313.28;;;31.53;52.48
5455;BME280;2750;49.050;9.250;2023-05-21T10:11:53;98310.00;;;31.44;52.25
5455;BME280;2750;49.050;9.250;2023-05-21T10:16:56;98310.28;;;31.67;53.24
5455;BME280;2750;49.050;9.250;2023-05-21T10:21:59;98301.72;;;31.84;52.32
5455;BME280;2750;49.050;9.250;2023-05-21T10:27:01;98307.13;;;31.08;52.15
5455;BME280;2750;49.050;9.250;2023-05-21T10:32:05;98299.44;;;31.18;51.90
5455;BME280;2750;49.050;9.250;2023-05-21T10:37:07;98292.66;;;31.53;51.30
5455;BME280;2750;49.050;9.250;2023-05-21T10:42:17;98300.50;;;30.26;52.81
5455;BME280;2750;49.050;9.250;2023-05-21T10:47:41;98293.88;;;30.55;52.18
5455;BME280;2750;49.050;9.250;2023-05-21T10:52:58;98283.63;;;30.19;52.36
5455;BME280;2750;49.050;9.250;2023-05-21T10:58:21;98278.97;;;31.61;50.50
5455;BME280;2750;49.050;9.250;2023-05-21T11:03:28;98280.63;;;31.56;50.41
5455;BME280;2750;49.050;9.250;2023-05-21T11:08:31;98271.50;;;32.74;49.76
5455;BME280;2750;49.050;9.250;2023-05-21T11:13:44;98270.72;;;32.31;49.21
5455;BME280;2750;49.050;9.250;2023-05-21T11:18:59;98284.59;;;31.09;51.59
5455;BME280;2750;49.050;9.250;2023-05-21T11:24:05;98279.97;;;31.29;51.17
5455;BME280;2750;49.050;9.250;2023-05-21T11:29:07;98275.81;;;31.89;50.11
5455;BME280;2750;49.050;9.250;2023-05-21T11:34:13;98273.06;;;31.46;50.75
5455;BME280;2750;49.050;9.250;2023-05-21T11:39:17;98266.59;;;32.28;50.55
5455;BME280;2750;49.050;9.250;2023-05-21T11:44:36;98257.94;;;32.99;49.75
5455;BME280;2750;49.050;9.250;2023-05-21T11:49:41;98257.81;;;31.96;51.41
5455;BME280;2750;49.050;9.250;2023-05-21T11:54:44;98249.16;;;32.19;51.01
5455;BME280;2750;49.050;9.250;2023-05-21T11:59:48;98254.41;;;31.83;52.87
5455;BME280;2750;49.050;9.250;2023-05-21T12:04:52;98273.16;;;32.14;52.58
5455;BME280;2750;49.050;9.250;2023-05-21T12:09:55;98261.78;;;31.62;51.68
5455;BME280;2750;49.050;9.250;2023-05-21T12:14:57;98255.84;;;30.84;53.13
5455;BME280;2750;49.050;9.250;2023-05-21T12:20:00;98266.06;;;30.36;54.52
5455;BME280;2750;49.050;9.250;2023-05-21T12:25:07;98262.22;;;30.83;49.85
5455;BME280;2750;49.050;9.250;2023-05-21T12:30:09;98254.09;;;31.72;49.31
5455;BME280;2750;49.050;9.250;2023-05-21T12:35:20;98250.47;;;32.10;53.36
5455;BME280;2750;49.050;9.250;2023-05-21T12:40:33;98254.19;;;32.09;52.51
5455;BME280;2750;49.050;9.250;2023-05-21T12:45:36;98255.28;;;32.26;51.25
5455;BME280;2750;49.050;9.250;2023-05-21T12:50:41;98258.91;;;32.32;50.50
5455;BME280;2750;49.050;9.250;2023-05-21T12:55:43;98259.81;;;33.28;48.73
5455;BME280;2750;49.050;9.250;2023-05-21T13:00:45;98263.22;;;34.70;47.13
5455;BME280;2750;49.050;9.250;2023-05-21T13:05:57;98263.59;;;33.39;44.44
5455;BME280;2750;49.050;9.250;2023-05-21T13:10:58;98256.41;;;33.62;44.68
5455;BME280;2750;49.050;9.250;2023-05-21T13:16:00;98256.38;;;34.16;43.54
5455;BME280;2750;49.050;9.250;2023-05-21T13:21:03;98251.94;;;35.41;42.57
5455;BME280;2750;49.050;9.250;2023-05-21T13:26:04;98257.91;;;35.26;43.40
5455;BME280;2750;49.050;9.250;2023-05-21T13:31:06;98245.81;;;34.89;44.38
5455;BME280;2750;49.050;9.250;2023-05-21T13:36:09;98257.38;;;34.73;44.04
5455;BME280;2750;49.050;9.250;2023-05-21T13:41:11;98244.94;;;35.90;42.77
5455;BME280;2750;49.050;9.250;2023-05-21T13:46:12;98242.50;;;36.87;41.80
5455;BME280;2750;49.050;9.250;2023-05-21T13:51:15;98248.16;;;35.87;41.92
5455;BME280;2750;49.050;9.250;2023-05-21T13:56:17;98250.06;;;36.08;42.10
5455;BME280;2750;49.050;9.250;2023-05-21T14:01:20;98254.44;;;34.63;43.90
5455;BME280;2750;49.050;9.250;2023-05-21T14:06:23;98247.16;;;35.76;42.81
5455;BME280;2750;49.050;9.250;2023-05-21T14:11:25;98250.75;;;36.15;42.34
5455;BME280;2750;49.050;9.250;2023-05-21T14:16:26;98246.13;;;36.71;40.15
5455;BME280;2750;49.050;9.250;2023-05-21T14:21:30;98253.75;;;35.52;42.98
5455;BME280;2750;49.050;9.250;2023-05-21T14:26:31;98255.41;;;36.20;41.90
5455;BME280;2750;49.050;9.250;2023-05-21T14:31:33;98256.41;;;35.97;41.24
5455;BME280;2750;49.050;9.250;2023-05-21T14:36:36;98249.94;;;35.98;40.20
5455;BME280;2750;49.050;9.250;2023-05-21T14:41:38;98253.16;;;35.33;40.08
5455;BME280;2750;49.050;9.250;2023-05-21T14:46:40;98243.16;;;35.17;41.44
5455;BME280;2750;49.050;9.250;2023-05-21T14:51:43;98234.81;;;35.64;39.94
5455;BME280;2750;49.050;9.250;2023-05-21T14:56:46;98236.75;;;36.02;39.81
5455;BME280;2750;49.050;9.250;2023-05-21T15:01:48;98228.81;;;35.62;39.85
5455;BME280;2750;49.050;9.250;2023-05-21T15:06:50;98227.03;;;35.84;39.30
5455;BME280;2750;49.050;9.250;2023-05-21T15:11:52;98227.75;;;36.34;39.53
5455;BME280;2750;49.050;9.250;2023-05-21T15:16:53;98224.56;;;35.82;39.99
5455;BME280;2750;49.050;9.250;2023-05-21T15:21:56;98226.16;;;35.05;39.88
5455;BME280;2750;49.050;9.250;2023-05-21T15:26:58;98231.66;;;35.10;40.51
5455;BME280;2750;49.050;9.250;2023-05-21T15:31:59;98233.03;;;35.13;40.87
5455;BME280;2750;49.050;9.250;2023-05-21T15:37:05;98228.13;;;34.81;42.40
5455;BME280;2750;49.050;9.250;2023-05-21T15:42:07;98216.97;;;33.15;46.11
5455;BME280;2750;49.050;9.250;2023-05-21T15:47:08;98217.28;;;31.98;49.14
5455;BME280;2750;49.050;9.250;2023-05-21T15:52:11;98214.84;;;30.07;52.35
5455;BME280;2750;49.050;9.250;2023-05-21T15:57:13;98213.19;;;30.06;51.89
5455;BME280;2750;49.050;9.250;2023-05-21T16:02:14;98209.47;;;30.20;52.53
5455;BME280;2750;49.050;9.250;2023-05-21T16:07:17;98216.31;;;29.96;53.02
5455;BME280;2750;49.050;9.250;2023-05-21T16:12:19;98226.00;;;29.51;54.24
5455;BME280;2750;49.050;9.250;2023-05-21T16:17:20;98223.09;;;29.46;54.95
5455;BME280;2750;49.050;9.250;2023-05-21T16:22:24;98217.97;;;29.38;56.40
5455;BME280;2750;49.050;9.250;2023-05-21T16:27:25;98221.81;;;29.16;57.16
5455;BME280;2750;49.050;9.250;2023-05-21T16:32:27;98217.31;;;29.75;56.62
5455;BME280;2750;49.050;9.250;2023-05-21T16:37:30;98221.06;;;30.01;56.53
5455;BME280;2750;49.050;9.250;2023-05-21T16:42:31;98227.16;;;30.21;56.27
5455;BME280;2750;49.050;9.250;2023-05-21T16:47:33;98224.09;;;30.11;56.30
5455;BME280;2750;49.050;9.250;2023-05-21T16:52:35;98222.88;;;30.20;56.60
5455;BME280;2750;49.050;9.250;2023-05-21T16:57:37;98215.22;;;30.17;56.93
5455;BME280;2750;49.050;9.250;2023-05-21T17:02:38;98222.97;;;30.58;55.67
5455;BME280;2750;49.050;9.250;2023-05-21T17:07:41;98217.41;;;30.53;56.48
5455;BME280;2750;49.050;9.250;2023-05-21T17:12:43;98219.38;;;30.70;55.71
5455;BME280;2750;49.050;9.250;2023-05-21T17:17:45;98218.66;;;30.37;56.48
5455;BME280;2750;49.050;9.250;2023-05-21T17:22:47;98217.66;;;30.38;56.73
5455;BME280;2750;49.050;9.250;2023-05-21T17:27:49;98215.25;;;29.84;57.81
5455;BME280;2750;49.050;9.250;2023-05-21T17:32:51;98220.66;;;29.97;58.05
5455;BME280;2750;49.050;9.250;2023-05-21T17:37:55;98212.00;;;29.42;59.05
5455;BME280;2750;49.050;9.250;2023-05-21T17:42:56;98221.59;;;29.11;60.20
5455;BME280;2750;49.050;9.250;2023-05-21T17:47:58;98219.13;;;29.22;60.04
5455;BME280;2750;49.050;9.250;2023-05-21T17:53:00;98222.44;;;28.57;60.20
5455;BME280;2750;49.050;9.250;2023-05-21T17:58:02;98226.72;;;28.52;60.51
5455;BME280;2750;49.050;9.250;2023-05-21T18:03:04;98235.22;;;28.27;60.61
5455;BME280;2750;49.050;9.250;2023-05-21T18:08:07;98231.59;;;28.07;62.04
5455;BME280;2750;49.050;9.250;2023-05-21T18:13:09;98234.84;;;27.47;60.51
5455;BME280;2750;49.050;9.250;2023-05-21T18:18:10;98226.16;;;27.02;61.36
5455;BME280;2750;49.050;9.250;2023-05-21T18:23:17;98240.41;;;26.95;61.55
5455;BME280;2750;49.050;9.250;2023-05-21T18:28:19;98233.78;;;27.27;61.76
5455;BME280;2750;49.050;9.250;2023-05-21T18:33:20;98243.69;;;27.12;63.45
5455;BME280;2750;49.050;9.250;2023-05-21T18:38:23;98243.94;;;26.81;63.25
5455;BME280;2750;49.050;9.250;2023-05-21T18:43:25;98243.78;;;26.53;65.10
5455;BME280;2750;49.050;9.250;2023-05-21T18:48:27;98246.91;;;26.42;65.37
5455;BME280;2750;49.050;9.250;2023-05-21T18:53:29;98246.91;;;26.12;66.16
5455;BME280;2750;49.050;9.250;2023-05-21T18:58:31;98250.75;;;25.12;69.62
5455;BME280;2750;49.050;9.250;2023-05-21T19:03:33;98266.19;;;24.78;70.54
5455;BME280;2750;49.050;9.250;2023-05-21T19:08:35;98254.41;;;24.72;69.71
5455;BME280;2750;49.050;9.250;2023-05-21T19:13:38;98262.44;;;24.09;71.14
5455;BME280;2750;49.050;9.250;2023-05-21T19:18:40;98261.16;;;23.81;72.29
5455;BME280;2750;49.050;9.250;2023-05-21T19:23:43;98265.81;;;23.55;72.95
5455;BME280;2750;49.050;9.250;2023-05-21T19:28:44;98275.91;;;23.59;72.00
5455;BME280;2750;49.050;9.250;2023-05-21T19:33:47;98276.00;;;23.09;74.07
5455;BME280;2750;49.050;9.250;2023-05-21T19:38:50;98291.16;;;22.83;75.06
5455;BME280;2750;49.050;9.250;2023-05-21T19:43:51;98285.88;;;22.91;74.90
5455;BME280;2750;49.050;9.250;2023-05-21T19:48:53;98293.25;;;22.37;76.48
5455;BME280;2750;49.050;9.250;2023-05-21T19:53:56;98296.13;;;22.52;75.96
5455;BME280;2750;49.050;9.250;2023-05-21T19:58:57;98301.22;;;22.46;76.35
5455;BME280;2750;49.050;9.250;2023-05-21T20:04:01;98308.34;;;21.76;77.76
5455;BME280;2750;49.050;9.250;2023-05-21T20:09:05;98311.25;;;21.29;79.66
5455;BME280;2750;49.050;9.250;2023-05-21T20:14:07;98312.81;;;20.95;80.36
5455;BME280;2750;49.050;9.250;2023-05-21T20:19:08;98306.19;;;21.36;79.55
5455;BME280;2750;49.050;9.250;2023-05-21T20:24:11;98308.53;;;21.57;78.70
5455;BME280;2750;49.050;9.250;2023-05-21T20:29:13;98314.53;;;21.31;80.23
5455;BME280;2750;49.050;9.250;2023-05-21T20:34:14;98311.63;;;21.34;80.49
5455;BME280;2750;49.050;9.250;2023-05-21T20:39:18;98308.06;;;21.26;80.09
5455;BME280;2750;49.050;9.250;2023-05-21T20:44:21;98319.41;;;21.09;80.97
5455;BME280;2750;49.050;9.250;2023-05-21T20:49:24;98311.34;;;21.10;80.83
5455;BME280;2750;49.050;9.250;2023-05-21T20:54:28;98312.69;;;20.96;80.71
5455;BME280;2750;49.050;9.250;2023-05-21T20:59:31;98313.97;;;20.92;80.88
5455;BME280;2750;49.050;9.250;2023-05-21T21:04:32;98320.13;;;20.83;80.81
5455;BME280;2750;49.050;9.250;2023-05-21T21:09:35;98326.75;;;20.87;81.06
5455;BME280;2750;49.050;9.250;2023-05-21T21:14:37;98327.69;;;20.69;81.62
5455;BME280;2750;49.050;9.250;2023-05-21T21:19:38;98323.34;;;20.50;82.74
5455;BME280;2750;49.050;9.250;2023-05-21T21:24:41;98321.69;;;20.39;83.45
5455;BME280;2750;49.050;9.250;2023-05-21T21:29:43;98325.34;;;20.19;84.83
5455;BME280;2750;49.050;9.250;2023-05-21T21:34:45;98331.34;;;20.02;85.12
5455;BME280;2750;49.050;9.250;2023-05-21T21:39:48;98327.69;;;20.13;84.45
5455;BME280;2750;49.050;9.250;2023-05-21T21:44:49;98332.97;;;20.22;84.11
5455;BME280;2750;49.050;9.250;2023-05-21T21:49:51;98319.63;;;20.33;83.62
5455;BME280;2750;49.050;9.250;2023-05-21T21:54:53;98331.50;;;19.91;85.68
5455;BME280;2750;49.050;9.250;2023-05-21T21:59:55;98324.97;;;19.95;85.28
5455;BME280;2750;49.050;9.250;2023-05-21T22:04:56;98328.88;;;19.91;85.21
5455;BME280;2750;49.050;9.250;2023-05-21T22:09:59;98324.69;;;19.98;84.56
5455;BME280;2750;49.050;9.250;2023-05-21T22:15:01;98326.38;;;19.80;85.64
5455;BME280;2750;49.050;9.250;2023-05-21T22:20:05;98333.47;;;19.70;85.61
5455;BME280;2750;49.050;9.250;2023-05-21T22:25:08;98335.13;;;19.71;85.70
5455;BME280;2750;49.050;9.250;2023-05-21T22:30:10;98345.06;;;19.38;86.50
5455;BME280;2750;49.050;9.250;2023-05-21T22:35:12;98334.13;;;19.33;86.74
5455;BME280;2750;49.050;9.250;2023-05-21T22:40:15;98320.97;;;19.33;86.54
5455;BME280;2750;49.050;9.250;2023-05-21T22:45:16;98338.94;;;19.28;86.53
5455;BME280;2750;49.050;9.250;2023-05-21T22:50:18;98336.44;;;19.07;87.18
5455;BME280;2750;49.050;9.250;2023-05-21T22:55:21;98336.03;;;19.12;86.99
5455;BME280;2750;49.050;9.250;2023-05-21T23:00:22;98333.41;;;19.22;86.05
5455;BME280;2750;49.050;9.250;2023-05-21T23:05:24;98341.44;;;19.10;86.73
5455;BME280;2750;49.050;9.250;2023-05-21T23:10:27;98348.19;;;19.13;86.26
5455;BME280;2750;49.050;9.250;2023-05-21T23:15:28;98342.50;;;18.98;86.97
5455;BME280;2750;49.050;9.250;2023-05-21T23:20:30;98334.44;;;18.81;87.78
5455;BME280;2750;49.050;9.250;2023-05-21T23:25:33;98347.16;;;18.76;87.76
5455;BME280;2750;49.050;9.250;2023-05-21T23:30:35;98347.94;;;18.67;87.95
5455;BME280;2750;49.050;9.250;2023-05-21T23:35:37;98352.94;;;18.70;87.88
5455;BME280;2750;49.050;9.250;2023-05-21T23:40:40;98351.66;;;18.64;88.08
5455;BME280;2750;49.050;9.250;2023-05-21T23:45:42;98353.59;;;18.41;88.87
5455;BME280;2750;49.050;9.250;2023-05-21T23:50:44;98357.38;;;18.48;88.75
5455;BME280;2750;49.050;9.250;2023-05-21T23:55:46;98356.06;;;18.54;88.30
